Time;durP1;ratioP1;P1;durP2;ratioP2;P2;SDS_P1;SDS_P2;PMS_P1;PMS_P2;Temp;Humidity;BMP_temperature;BMP_pressure;BME280_temperature;BME280_humidity;BME280_pressure;Samples;Min_cycle;Max_cycle;Signal;HPM_P1;HPM_P2
2021/07/17 00:00:29;;;;;;;;;;;;;;;25.74;44.46;100144.97;1795154;79;20236;-47
2021/07/17 00:02:57;;;;;;;;;;;;;;;25.77;44.53;100153.98;1794782;79;20249;-49
2021/07/17 00:05:23;;;;;;;;;;;;;;;25.79;44.60;100143.28;1790605;79;20405;-48
2021/07/17 00:07:49;;;;;;;;;;;;;;;25.82;44.66;100148.92;1790847;79;20167;-50
2021/07/17 00:10:22;;;;;;;;;;;;;;;25.85;44.71;100155.73;1791464;79;21001;-48
2021/07/17 00:12:48;;;;;;;;;;;;;;;25.87;44.76;100158.97;1799215;78;20227;-47
2021/07/17 00:15:15;;;;;;;;;;;;;;;25.89;44.81;100153.23;1767902;79;20823;-47
2021/07/17 00:17:43;;;;;;;;;;;;;;;25.91;44.86;100159.25;1771985;79;20159;-48
2021/07/17 00:20:09;;;;;;;;;;;;;;;25.94;44.91;100154.91;1794182;78;20504;-49
2021/07/17 00:22:35;;;;;;;;;;;;;;;25.97;45.00;100154.77;1772979;79;21133;-48
2021/07/17 00:25:06;;;;;;;;;;;;;;;26.00;45.07;100156.81;1782915;79;20425;-47
2021/07/17 00:27:32;;;;;;;;;;;;;;;26.01;45.13;100151.47;1778823;79;20459;-46
2021/07/17 00:29:57;;;;;;;;;;;;;;;26.03;45.20;100149.09;1789254;78;22035;-49
2021/07/17 00:32:24;;;;;;;;;;;;;;;26.05;45.25;100153.14;1763040;80;20234;-49
2021/07/17 00:34:49;;;;;;;;;;;;;;;26.07;45.34;100145.78;1760420;80;21305;-47
2021/07/17 00:37:15;;;;;;;;;;;;;;;26.08;45.41;100145.42;1766864;80;20874;-47
2021/07/17 00:39:41;;;;;;;;;;;;;;;26.11;45.50;100146.66;1761553;80;20978;-49
2021/07/17 00:42:07;;;;;;;;;;;;;;;26.11;45.59;100148.86;1760698;80;20184;-47
2021/07/17 00:44:33;;;;;;;;;;;;;;;26.13;45.65;100146.52;1769931;80;20141;-48
2021/07/17 00:46:59;;;;;;;;;;;;;;;26.14;45.70;100144.55;1768535;80;21136;-50
2021/07/17 00:49:27;;;;;;;;;;;;;;;26.17;45.80;100151.57;1769543;80;20208;-49
2021/07/17 00:51:53;;;;;;;;;;;;;;;26.16;45.84;100144.38;1767840;80;20167;-49
2021/07/17 00:54:19;;;;;;;;;;;;;;;26.19;45.93;100153.38;1765235;79;20409;-48
2021/07/17 00:56:46;;;;;;;;;;;;;;;26.19;45.99;100143.62;1768929;79;20748;-49
2021/07/17 00:59:12;;;;;;;;;;;;;;;26.22;46.05;100139.34;1770718;79;21089;-47
2021/07/17 01:01:38;;;;;;;;;;;;;;;26.22;46.10;100136.55;1805406;78;20238;-48
2021/07/17 01:04:04;;;;;;;;;;;;;;;26.23;46.18;100138.94;1794773;78;20248;-47
2021/07/17 01:06:30;;;;;;;;;;;;;;;26.24;46.22;100132.20;1773971;78;20771;-47
2021/07/17 01:08:56;;;;;;;;;;;;;;;26.26;46.27;100133.23;1771875;78;20737;-50
2021/07/17 01:11:21;;;;;;;;;;;;;;;26.27;46.30;100133.42;1774228;78;20995;-47
2021/07/17 01:13:47;;;;;;;;;;;;;;;26.28;46.38;100128.07;1770646;78;20195;-49
2021/07/17 01:16:13;;;;;;;;;;;;;;;26.30;46.41;100127.12;1774546;78;20169;-46
2021/07/17 01:18:39;;;;;;;;;;;;;;;26.30;46.46;100129.91;1739656;80;20665;-51
2021/07/17 01:21:05;;;;;;;;;;;;;;;26.31;46.49;100119.77;1739026;78;20226;-48
2021/07/17 01:23:31;;;;;;;;;;;;;;;26.32;46.52;100123.36;1771535;78;23386;-50
2021/07/17 01:25:57;;;;;;;;;;;;;;;26.33;46.55;100127.18;1775306;78;20275;-49
2021/07/17 01:28:23;;;;;;;;;;;;;;;26.34;46.58;100121.83;1773780;78;20750;-51
2021/07/17 01:30:51;;;;;;;;;;;;;;;26.35;46.62;100118.45;1771565;78;20203;-47
2021/07/17 01:33:17;;;;;;;;;;;;;;;26.36;46.65;100119.45;1769618;79;20137;-49
2021/07/17 01:35:44;;;;;;;;;;;;;;;26.38;46.67;100116.89;1776281;78;21071;-49
2021/07/17 01:38:10;;;;;;;;;;;;;;;26.39;46.68;100115.72;1773900;78;20217;-50
2021/07/17 01:40:36;;;;;;;;;;;;;;;26.39;46.72;100117.11;1775750;78;20466;-48
2021/07/17 01:43:02;;;;;;;;;;;;;;;26.41;46.76;100120.31;1773115;78;21029;-47
2021/07/17 01:45:35;;;;;;;;;;;;;;;26.40;46.79;100115.32;1770330;78;20373;-47
2021/07/17 01:48:03;;;;;;;;;;;;;;;26.42;46.83;100119.95;1769215;78;21064;-48
2021/07/17 01:50:29;;;;;;;;;;;;;;;26.44;46.85;100120.98;1774419;78;20176;-47
2021/07/17 01:52:55;;;;;;;;;;;;;;;26.44;46.85;100120.98;1771147;78;20261;-47
2021/07/17 01:55:21;;;;;;;;;;;;;;;26.44;46.89;100121.77;1772061;78;20395;-49
2021/07/17 01:57:48;;;;;;;;;;;;;;;26.45;46.93;100116.99;1777316;78;20733;-50
2021/07/17 02:00:14;;;;;;;;;;;;;;;26.45;46.96;100121.98;1774421;78;21149;-48
2021/07/17 02:02:41;;;;;;;;;;;;;;;26.46;47.00;100115.23;1772229;79;21231;-47
2021/07/17 02:05:08;;;;;;;;;;;;;;;26.47;47.02;100118.83;1777708;78;20192;-50
2021/07/17 02:07:34;;;;;;;;;;;;;;;26.47;47.06;100115.45;1768970;78;20603;-47
2021/07/17 02:10:11;;;;;;;;;;;;;;;26.48;47.08;100116.27;1772442;78;20253;-48
2021/07/17 02:12:38;;;;;;;;;;;;;;;26.48;47.10;100110.07;1767721;78;20823;-50
2021/07/17 02:15:07;;;;;;;;;;;;;;;26.50;47.14;100110.52;1773283;78;20454;-49
2021/07/17 02:17:34;;;;;;;;;;;;;;;26.50;47.17;100110.52;1771537;78;20125;-51
2021/07/17 02:20:00;;;;;;;;;;;;;;;26.51;47.18;100113.53;1739002;78;20231;-48
2021/07/17 02:22:25;;;;;;;;;;;;;;;26.51;47.24;100116.31;1771098;78;20140;-48
2021/07/17 02:24:53;;;;;;;;;;;;;;;26.53;47.22;100120.92;1765461;78;21295;-47
2021/07/17 02:27:19;;;;;;;;;;;;;;;26.53;47.27;100119.52;1766764;78;20183;-48
2021/07/17 02:29:45;;;;;;;;;;;;;;;26.53;47.29;100111.16;1768350;78;20206;-48
2021/07/17 02:32:11;;;;;;;;;;;;;;;26.54;47.30;100111.97;1775303;78;20462;-48
2021/07/17 02:34:37;;;;;;;;;;;;;;;26.55;47.33;100114.98;1770906;78;20780;-47
2021/07/17 02:37:03;;;;;;;;;;;;;;;26.56;47.34;100113.80;1772009;78;21133;-46
2021/07/17 02:39:29;;;;;;;;;;;;;;;26.56;47.39;100113.80;1774015;78;20177;-47
2021/07/17 02:41:55;;;;;;;;;;;;;;;26.56;47.40;100117.41;1776761;78;20954;-50
2021/07/17 02:44:21;;;;;;;;;;;;;;;26.58;47.42;100115.61;1774033;78;20689;-51
2021/07/17 02:46:46;;;;;;;;;;;;;;;26.57;47.46;100110.62;1770299;78;20249;-46
2021/07/17 02:49:15;;;;;;;;;;;;;;;26.58;47.47;100111.42;1740211;78;20278;-47
2021/07/17 02:51:41;;;;;;;;;;;;;;;26.59;47.50;100115.83;1772779;78;20478;-47
2021/07/17 02:54:09;;;;;;;;;;;;;;;26.58;47.52;100111.42;1769279;78;20145;-46
2021/07/17 02:56:35;;;;;;;;;;;;;;;26.60;47.55;100118.84;1772550;78;20200;-47
2021/07/17 02:59:01;;;;;;;;;;;;;;;26.59;47.59;100114.44;1772848;78;20173;-46
2021/07/17 03:01:27;;;;;;;;;;;;;;;26.60;47.62;100109.89;1776241;78;21146;-45
2021/07/17 03:03:53;;;;;;;;;;;;;;;26.62;47.63;100112.28;1769616;78;20514;-47
2021/07/17 03:06:19;;;;;;;;;;;;;;;26.61;47.67;100117.05;1773143;78;20252;-46
2021/07/17 03:08:45;;;;;;;;;;;;;;;26.61;47.69;100110.67;1775916;78;20182;-46
2021/07/17 03:11:10;;;;;;;;;;;;;;;26.62;47.71;100115.08;1772209;78;20748;-48
2021/07/17 03:13:37;;;;;;;;;;;;;;;26.63;47.75;100112.51;1774921;78;21874;-46
2021/07/17 03:16:03;;;;;;;;;;;;;;;26.63;47.80;100111.11;1769912;78;20236;-47
2021/07/17 03:18:29;;;;;;;;;;;;;;;26.64;47.81;100112.73;1769893;78;20231;-48
2021/07/17 03:20:55;;;;;;;;;;;;;;;26.63;47.82;100109.72;1771017;78;20638;-47
2021/07/17 03:23:21;;;;;;;;;;;;;;;26.63;47.88;100103.55;1769994;78;20143;-47
2021/07/17 03:25:46;;;;;;;;;;;;;;;26.64;47.91;100110.75;1769595;79;21149;-46
2021/07/17 03:28:12;;;;;;;;;;;;;;;26.65;47.91;100111.55;1772101;80;20166;-49
2021/07/17 03:30:38;;;;;;;;;;;;;;;26.66;47.95;100107.56;1775775;80;20783;-49
2021/07/17 03:33:04;;;;;;;;;;;;;;;26.66;47.97;100111.16;1767983;80;20681;-50
2021/07/17 03:35:30;;;;;;;;;;;;;;;26.67;48.00;100109.18;1770557;80;20222;-48
2021/07/17 03:37:56;;;;;;;;;;;;;;;26.67;48.03;100111.97;1769742;80;21749;-49
2021/07/17 03:40:22;;;;;;;;;;;;;;;26.67;48.05;100113.37;1777901;80;20227;-47
2021/07/17 03:42:48;;;;;;;;;;;;;;;26.67;48.05;100109.98;1767487;80;20451;-47
2021/07/17 03:45:14;;;;;;;;;;;;;;;26.68;48.09;100114.98;1768836;80;20705;-47
2021/07/17 03:47:40;;;;;;;;;;;;;;;26.67;48.10;100115.57;1770953;80;20183;-50
2021/07/17 03:50:10;;;;;;;;;;;;;;;26.68;48.15;100118.58;1772246;80;21039;-46
2021/07/17 03:52:36;;;;;;;;;;;;;;;26.68;48.13;100113.00;1770929;80;20559;-47
2021/07/17 03:55:03;;;;;;;;;;;;;;;26.68;48.18;100110.21;1769295;80;20245;-47
2021/07/17 03:57:28;;;;;;;;;;;;;;;26.69;48.21;100117.38;1768990;80;20259;-47
2021/07/17 03:59:54;;;;;;;;;;;;;;;26.69;48.23;100114.59;1772554;80;20211;-48
2021/07/17 04:02:20;;;;;;;;;;;;;;;26.70;48.25;100116.80;1774858;80;22125;-51
2021/07/17 04:04:48;;;;;;;;;;;;;;;26.70;48.28;100118.19;1770191;80;20244;-47
2021/07/17 04:07:14;;;;;;;;;;;;;;;26.71;48.29;100117.02;1768116;80;20384;-48
2021/07/17 04:09:40;;;;;;;;;;;;;;;26.70;48.33;100114.81;1771398;80;20430;-49
2021/07/17 04:12:06;;;;;;;;;;;;;;;26.72;48.35;100118.63;1773840;80;20251;-47
2021/07/17 04:14:32;;;;;;;;;;;;;;;26.71;48.36;100116.42;1768657;80;21138;-47
2021/07/17 04:16:58;;;;;;;;;;;;;;;26.72;48.39;100121.42;1769986;80;20537;-48
2021/07/17 04:19:23;;;;;;;;;;;;;;;26.73;48.42;100111.87;1769125;80;20261;-47
2021/07/17 04:21:49;;;;;;;;;;;;;;;26.72;48.41;100117.23;1769057;80;20227;-46
2021/07/17 04:24:15;;;;;;;;;;;;;;;26.73;48.46;100113.27;1773735;80;20250;-47
2021/07/17 04:26:41;;;;;;;;;;;;;;;26.73;48.49;100113.27;1793513;78;21142;-47
2021/07/17 04:29:07;;;;;;;;;;;;;;;26.73;48.51;100104.28;1792254;78;20191;-47
2021/07/17 04:31:34;;;;;;;;;;;;;;;26.74;48.52;100112.06;1793858;78;20170;-47
2021/07/17 04:34:00;;;;;;;;;;;;;;;26.73;48.54;100107.08;1760719;80;20707;-47
2021/07/17 04:36:26;;;;;;;;;;;;;;;26.74;48.54;100113.47;1798990;78;20835;-48
2021/07/17 04:38:52;;;;;;;;;;;;;;;26.74;48.60;100108.69;1799132;78;21109;-47
2021/07/17 04:41:18;;;;;;;;;;;;;;;26.75;48.60;100106.70;1794590;78;20214;-46
2021/07/17 04:43:44;;;;;;;;;;;;;;;26.76;48.63;100105.53;1799155;78;20176;-46
2021/07/17 04:46:09;;;;;;;;;;;;;;;26.75;48.65;100098.34;1799153;78;20172;-47
2021/07/17 04:48:38;;;;;;;;;;;;;;;26.75;48.67;100098.34;1796816;78;20168;-46
2021/07/17 04:51:03;;;;;;;;;;;;;;;26.76;48.70;100098.56;1800101;78;21237;-46
2021/07/17 04:53:29;;;;;;;;;;;;;;;26.75;48.72;100099.14;1804020;78;20269;-47
2021/07/17 04:55:55;;;;;;;;;;;;;;;26.76;48.75;100100.77;1804201;78;20611;-46
2021/07/17 04:58:21;;;;;;;;;;;;;;;26.76;48.78;100096.58;1802325;78;21455;-45
2021/07/17 05:00:47;;;;;;;;;;;;;;;26.76;48.82;100096.58;1797211;78;20165;-47
2021/07/17 05:03:13;;;;;;;;;;;;;;;26.77;48.84;100091.80;1805604;78;21051;-46
2021/07/17 05:05:40;;;;;;;;;;;;;;;26.77;48.88;100082.03;1798620;78;20238;-46
2021/07/17 05:08:07;;;;;;;;;;;;;;;26.77;48.90;100080.64;1801589;78;20142;-48
2021/07/17 05:10:33;;;;;;;;;;;;;;;26.76;48.91;100079.83;1803795;77;20138;-47
2021/07/17 05:13:12;;;;;;;;;;;;;;;26.77;48.94;100080.64;1796174;78;20188;-49
2021/07/17 05:15:38;;;;;;;;;;;;;;;26.78;48.95;100068.27;1755270;80;21032;-49
2021/07/17 05:18:04;;;;;;;;;;;;;;;26.77;49.00;100071.68;1800158;78;20534;-47
2021/07/17 05:20:30;;;;;;;;;;;;;;;26.78;49.04;100064.09;1801282;78;20082;-48
2021/07/17 05:22:56;;;;;;;;;;;;;;;26.78;49.08;100070.48;1766683;80;20236;-49
2021/07/17 05:25:22;;;;;;;;;;;;;;;26.76;49.14;100077.04;1760395;80;20190;-53
2021/07/17 05:27:48;;;;;;;;;;;;;;;26.77;49.15;100078.66;1769623;80;21107;-48
2021/07/17 05:30:15;;;;;;;;;;;;;;;26.76;49.17;100080.42;1768506;80;20767;-47
2021/07/17 05:32:41;;;;;;;;;;;;;;;26.77;49.18;100083.43;1768258;80;20198;-47
2021/07/17 05:35:08;;;;;;;;;;;;;;;26.75;49.18;100082.98;1773224;79;20144;-48
2021/07/17 05:37:33;;;;;;;;;;;;;;;26.76;49.15;100083.21;1774040;80;20207;-51
2021/07/17 05:39:59;;;;;;;;;;;;;;;26.75;49.17;100080.20;1766860;80;21308;-52
2021/07/17 05:42:25;;;;;;;;;;;;;;;26.74;49.19;100082.18;1772199;80;20179;-55
2021/07/17 05:44:51;;;;;;;;;;;;;;;26.74;49.19;100082.18;1770519;80;20260;-49
2021/07/17 05:47:17;;;;;;;;;;;;;;;26.75;49.18;100082.98;1769955;80;20320;-50
2021/07/17 05:49:43;;;;;;;;;;;;;;;26.74;49.22;100085.56;1774927;80;20207;-49
2021/07/17 05:52:09;;;;;;;;;;;;;;;26.75;49.30;100078.80;1771668;80;21123;-52
2021/07/17 05:54:35;;;;;;;;;;;;;;;26.74;49.35;100068.81;1766855;80;20202;-47
2021/07/17 05:57:01;;;;;;;;;;;;;;;26.75;49.37;100065.66;1769335;80;20167;-48
2021/07/17 05:59:29;;;;;;;;;;;;;;;26.76;49.37;100070.66;1765016;80;20236;-49
2021/07/17 06:01:55;;;;;;;;;;;;;;;26.76;49.37;100065.88;1765612;80;20301;-57
2021/07/17 06:04:21;;;;;;;;;;;;;;;26.78;49.39;100069.08;1761681;80;21086;-49
2021/07/17 06:06:47;;;;;;;;;;;;;;;26.79;49.41;100068.49;1768187;80;20344;-57
2021/07/17 06:09:13;;;;;;;;;;;;;;;26.80;49.41;100070.92;1768234;80;20212;-56
2021/07/17 06:11:39;;;;;;;;;;;;;;;26.80;49.45;100070.92;1774103;80;20699;-55
2021/07/17 06:14:05;;;;;;;;;;;;;;;26.80;49.47;100072.31;1773636;80;20528;-59
2021/07/17 06:16:31;;;;;;;;;;;;;;;26.81;49.49;100083.70;1766786;79;21067;-55
2021/07/17 06:18:57;;;;;;;;;;;;;;;26.81;49.49;100089.28;1771517;80;20251;-47
2021/07/17 06:21:22;;;;;;;;;;;;;;;26.82;49.50;100081.09;1767638;80;20206;-54
2021/07/17 06:23:48;;;;;;;;;;;;;;;26.84;49.52;100093.29;1767407;79;20222;-55
2021/07/17 06:26:14;;;;;;;;;;;;;;;26.82;49.55;100090.05;1736487;80;20327;-54
2021/07/17 06:28:40;;;;;;;;;;;;;;;26.75;49.46;100085.78;1739198;81;21139;-52
2021/07/17 06:31:06;;;;;;;;;;;;;;;26.64;49.40;100088.42;1738689;81;20267;-53
2021/07/17 06:33:34;;;;;;;;;;;;;;;26.50;49.39;100083.20;1740788;81;20171;-54
2021/07/17 06:36:00;;;;;;;;;;;;;;;26.40;49.47;100082.44;1741724;81;20371;-54
2021/07/17 06:38:26;;;;;;;;;;;;;;;26.32;49.44;100081.52;1738440;81;20181;-54
2021/07/17 06:40:52;;;;;;;;;;;;;;;26.21;49.44;100075.79;1729401;81;21135;-54
2021/07/17 06:43:18;;;;;;;;;;;;;;;26.14;49.47;100079.02;1730649;81;20186;-53
2021/07/17 06:45:43;;;;;;;;;;;;;;;26.08;49.48;100080.50;1729116;81;20412;-49
2021/07/17 06:48:11;;;;;;;;;;;;;;;26.08;49.59;100079.11;1733464;81;20746;-50
2021/07/17 06:50:37;;;;;;;;;;;;;;;26.11;49.68;100077.77;1732995;81;20132;-52
2021/07/17 06:53:03;;;;;;;;;;;;;;;26.17;49.67;100086.63;1744023;81;21069;-50
2021/07/17 06:55:30;;;;;;;;;;;;;;;26.22;49.65;100082.98;1735361;81;20212;-51
2021/07/17 06:57:56;;;;;;;;;;;;;;;26.27;49.65;100084.03;1741923;81;20302;-55
2021/07/17 07:00:22;;;;;;;;;;;;;;;26.31;49.58;100084.90;1733497;81;20553;-55
2021/07/17 07:02:48;;;;;;;;;;;;;;;26.37;49.66;100085.40;1727354;81;20256;-54
2021/07/17 07:05:13;;;;;;;;;;;;;;;26.39;49.70;100080.27;1731495;81;21329;-52
2021/07/17 07:07:39;;;;;;;;;;;;;;;26.42;49.69;100079.51;1735612;81;20180;-51
2021/07/17 07:10:07;;;;;;;;;;;;;;;26.44;49.74;100081.31;1741453;81;20162;-55
2021/07/17 07:12:38;;;;;;;;;;;;;;;26.47;49.74;100076.98;1742937;81;20388;-55
2021/07/17 07:15:12;;;;;;;;;;;;;;;26.49;49.79;100075.42;1733460;81;20139;-55
2021/07/17 07:17:38;;;;;;;;;;;;;;;26.51;49.81;100082.03;1733501;81;21156;-54
2021/07/17 07:20:05;;;;;;;;;;;;;;;26.52;49.82;100083.03;1737404;81;20360;-54
2021/07/17 07:22:31;;;;;;;;;;;;;;;26.53;49.83;100079.07;1744419;81;20240;-54
2021/07/17 07:24:57;;;;;;;;;;;;;;;26.54;49.87;100081.27;1731987;79;20774;-54
2021/07/17 07:27:23;;;;;;;;;;;;;;;26.56;49.88;100078.93;1776483;79;20171;-53
2021/07/17 07:29:49;;;;;;;;;;;;;;;26.57;49.90;100080.52;1771017;79;21005;-54
2021/07/17 07:32:15;;;;;;;;;;;;;;;26.57;49.90;100073.54;1768276;79;20182;-55
2021/07/17 07:34:41;;;;;;;;;;;;;;;26.58;49.92;100070.39;1775058;79;20165;-53
2021/07/17 07:37:07;;;;;;;;;;;;;;;26.58;49.92;100071.78;1773124;79;20646;-53
2021/07/17 07:39:33;;;;;;;;;;;;;;;26.59;49.93;100068.41;1773372;79;20125;-54
2021/07/17 07:41:59;;;;;;;;;;;;;;;26.60;49.96;100065.25;1772966;79;20894;-54
2021/07/17 07:44:24;;;;;;;;;;;;;;;26.61;49.98;100066.03;1775127;79;20186;-53
2021/07/17 07:46:51;;;;;;;;;;;;;;;26.60;50.00;100068.04;1774443;79;20210;-54
2021/07/17 07:49:16;;;;;;;;;;;;;;;26.62;50.02;100074.62;1768942;79;20140;-54
2021/07/17 07:51:42;;;;;;;;;;;;;;;26.63;50.03;100074.25;1775338;79;20159;-54
2021/07/17 07:54:08;;;;;;;;;;;;;;;26.64;50.05;100068.89;1775680;79;21105;-54
2021/07/17 07:56:34;;;;;;;;;;;;;;;26.64;50.03;100071.69;1777159;79;20820;-51
2021/07/17 07:59:00;;;;;;;;;;;;;;;26.65;50.06;100076.06;1770920;79;20205;-55
2021/07/17 08:01:26;;;;;;;;;;;;;;;26.64;50.08;100074.47;1771879;79;20169;-52
2021/07/17 08:03:52;;;;;;;;;;;;;;;26.66;50.10;100076.87;1771712;79;20147;-55
2021/07/17 08:06:18;;;;;;;;;;;;;;;26.65;50.09;100067.69;1769113;80;21162;-54
2021/07/17 08:08:43;;;;;;;;;;;;;;;26.65;50.11;100059.32;1776253;79;20227;-55
2021/07/17 08:11:09;;;;;;;;;;;;;;;26.66;50.12;100055.36;1774714;80;20250;-55
2021/07/17 08:13:35;;;;;;;;;;;;;;;26.67;50.12;100047.80;1771094;79;20236;-56
2021/07/17 08:16:02;;;;;;;;;;;;;;;26.67;50.14;100049.19;1767585;79;21028;-54
2021/07/17 08:18:29;;;;;;;;;;;;;;;26.67;50.20;100048.60;1762644;79;21037;-54
2021/07/17 08:21:03;;;;;;;;;;;;;;;26.64;50.14;100052.16;1767040;80;20172;-54
2021/07/17 08:23:24;;;;;;;;;;;;;;;26.57;50.07;100054.02;1764850;79;20246;-54
2021/07/17 08:25:51;;;;;;;;;;;;;;;26.50;50.05;100045.55;1770444;80;20506;-54
2021/07/17 08:28:17;;;;;;;;;;;;;;;26.42;50.02;100045.23;1774701;79;20207;-54
2021/07/17 08:30:42;;;;;;;;;;;;;;;26.35;49.98;100045.32;1770673;80;21092;-54
2021/07/17 08:33:09;;;;;;;;;;;;;;;26.31;49.93;100049.23;1773854;79;20216;-55
2021/07/17 08:35:35;;;;;;;;;;;;;;;26.23;49.82;100052.50;1770017;80;20231;-52
2021/07/17 08:38:00;;;;;;;;;;;;;;;26.16;49.84;100041.80;1774258;80;20700;-52
2021/07/17 08:40:27;;;;;;;;;;;;;;;26.12;49.75;100050.11;1775044;80;20204;-51
2021/07/17 08:42:53;;;;;;;;;;;;;;;26.05;49.64;100040.25;1779206;79;21076;-53
2021/07/17 08:45:20;;;;;;;;;;;;;;;26.00;49.60;100048.91;1772782;80;20441;-50
2021/07/17 08:47:46;;;;;;;;;;;;;;;25.95;49.51;100052.59;1770634;79;20204;-52
2021/07/17 08:50:15;;;;;;;;;;;;;;;25.89;49.46;100045.93;1773903;79;20196;-51
2021/07/17 08:52:41;;;;;;;;;;;;;;;25.84;49.43;100039.27;1769140;79;20278;-55
2021/07/17 08:55:08;;;;;;;;;;;;;;;25.82;49.46;100047.20;1778690;80;21068;-53
2021/07/17 08:57:35;;;;;;;;;;;;;;;25.85;49.49;100040.08;1773518;79;20434;-55
2021/07/17 09:00:08;;;;;;;;;;;;;;;25.89;49.42;100042.34;1772888;79;20182;-53
2021/07/17 09:02:38;;;;;;;;;;;;;;;25.87;49.29;100042.73;1777634;79;20132;-53
2021/07/17 09:05:06;;;;;;;;;;;;;;;25.85;49.20;100038.69;1778077;80;20256;-54
2021/07/17 09:07:32;;;;;;;;;;;;;;;25.81;49.15;100040.60;1772338;80;21047;-54
2021/07/17 09:09:58;;;;;;;;;;;;;;;25.79;49.10;100030.44;1772109;79;20232;-50
2021/07/17 09:12:25;;;;;;;;;;;;;;;25.77;49.04;100035.56;1773909;79;20163;-54
2021/07/17 09:14:51;;;;;;;;;;;;;;;25.76;48.97;100040.91;1769289;80;20138;-54
2021/07/17 09:17:25;;;;;;;;;;;;;;;25.74;48.94;100033.52;1774327;80;20413;-53
2021/07/17 09:19:52;;;;;;;;;;;;;;;25.73;48.85;100041.66;1776627;79;21034;-54
2021/07/17 09:22:32;;;;;;;;;;;;;;;25.73;48.79;100038.87;1778067;79;20243;-54
2021/07/17 09:25:11;;;;;;;;;;;;;;;25.70;48.68;100033.46;1771111;79;20223;-54
2021/07/17 09:27:37;;;;;;;;;;;;;;;25.67;48.60;100025.05;1734821;80;20208;-54
2021/07/17 09:30:05;;;;;;;;;;;;;;;25.65;48.54;100027.38;1769420;79;20201;-52
2021/07/17 09:32:31;;;;;;;;;;;;;;;25.63;48.45;100024.17;1765406;79;21168;-54
2021/07/17 09:35:00;;;;;;;;;;;;;;;25.61;48.42;100027.91;1764428;80;20852;-54
2021/07/17 09:37:26;;;;;;;;;;;;;;;25.59;48.36;100025.48;1766704;80;20169;-54
2021/07/17 09:39:52;;;;;;;;;;;;;;;25.58;48.29;100018.33;1770377;80;20254;-54
2021/07/17 09:42:20;;;;;;;;;;;;;;;25.57;48.24;100020.88;1772453;79;20440;-53
2021/07/17 09:44:51;;;;;;;;;;;;;;;25.55;48.21;100017.65;1769693;80;20991;-54
2021/07/17 09:47:21;;;;;;;;;;;;;;;25.54;48.13;100002.72;1770729;79;20245;-54
2021/07/17 09:49:47;;;;;;;;;;;;;;;25.56;48.13;100017.06;1772376;80;20163;-53
2021/07/17 09:52:14;;;;;;;;;;;;;;;25.56;47.99;100017.88;1774700;80;21861;-55
2021/07/17 09:54:42;;;;;;;;;;;;;;;25.53;47.92;100013.05;1772869;80;20129;-53
2021/07/17 09:57:09;;;;;;;;;;;;;;;25.52;47.84;100011.98;1771664;79;21282;-53
2021/07/17 09:59:35;;;;;;;;;;;;;;;25.47;47.77;100019.47;1772636;79;20488;-53
2021/07/17 10:02:01;;;;;;;;;;;;;;;25.46;47.72;100018.47;1774738;79;20543;-53
2021/07/17 10:04:27;;;;;;;;;;;;;;;25.42;47.66;100012.81;1776709;79;20097;-51
2021/07/17 10:07:00;;;;;;;;;;;;;;;25.38;47.59;100009.16;1774343;79;20216;-51
2021/07/17 10:09:31;;;;;;;;;;;;;;;25.36;47.54;100016.27;1770983;79;21222;-55
2021/07/17 10:12:06;;;;;;;;;;;;;;;25.34;47.51;100011.06;1770925;79;20153;-54
2021/07/17 10:14:36;;;;;;;;;;;;;;;25.31;47.46;100013.20;1775728;80;20366;-52
2021/07/17 10:17:05;;;;;;;;;;;;;;;25.29;47.40;100012.75;1774880;79;20175;-54
2021/07/17 10:19:31;;;;;;;;;;;;;;;25.27;47.33;100009.55;1777812;79;20450;-54
2021/07/17 10:21:57;;;;;;;;;;;;;;;25.26;47.27;100011.30;1777462;79;21121;-54
2021/07/17 10:24:23;;;;;;;;;;;;;;;25.25;47.23;100005.53;1775515;79;20194;-54
2021/07/17 10:26:51;;;;;;;;;;;;;;;25.22;47.19;100004.27;1780623;79;20140;-54
2021/07/17 10:29:19;;;;;;;;;;;;;;;25.21;47.14;100008.22;1777179;79;20232;-51
2021/07/17 10:31:46;;;;;;;;;;;;;;;25.22;47.09;100004.85;1780353;79;20202;-51
2021/07/17 10:34:12;;;;;;;;;;;;;;;25.19;47.01;99999.45;1777882;79;21144;-53
2021/07/17 10:36:48;;;;;;;;;;;;;;;25.19;46.96;99997.25;1779301;79;20160;-50
2021/07/17 10:39:13;;;;;;;;;;;;;;;25.17;46.94;99996.22;1794707;78;20197;-52
2021/07/17 10:41:41;;;;;;;;;;;;;;;25.17;46.88;100003.75;1763318;80;20156;-51
2021/07/17 10:44:07;;;;;;;;;;;;;;;25.17;46.79;99992.62;1769267;80;20147;-50
2021/07/17 10:46:42;;;;;;;;;;;;;;;25.15;46.74;99979.09;1738926;80;21011;-52
2021/07/17 10:49:09;;;;;;;;;;;;;;;25.15;46.71;99977.70;1769300;79;20157;-51
2021/07/17 10:51:40;;;;;;;;;;;;;;;25.15;46.67;99988.02;1767873;79;20116;-53
2021/07/17 10:54:11;;;;;;;;;;;;;;;25.14;46.64;99983.04;1763973;79;20264;-52
2021/07/17 10:56:44;;;;;;;;;;;;;;;25.14;46.57;99990.00;1769103;80;20217;-52
2021/07/17 10:59:16;;;;;;;;;;;;;;;25.14;46.53;99985.82;1765089;80;21219;-52
2021/07/17 11:02:04;;;;;;;;;;;;;;;25.14;46.47;99983.63;1770501;80;20225;-51
2021/07/17 11:04:39;;;;;;;;;;;;;;;25.14;46.44;99978.05;1767475;80;20124;-52
2021/07/17 11:07:18;;;;;;;;;;;;;;;25.13;46.38;99988.38;1788724;78;20400;-52
2021/07/17 11:09:55;;;;;;;;;;;;;;;25.13;46.33;99983.39;1775705;79;20142;-52
2021/07/17 11:12:25;;;;;;;;;;;;;;;25.14;46.27;99976.66;1798047;78;21100;-52
2021/07/17 11:14:50;;;;;;;;;;;;;;;25.14;46.26;99976.08;1754697;80;20140;-52
2021/07/17 11:17:43;;;;;;;;;;;;;;;25.15;46.19;99976.89;1758749;80;20193;-49
2021/07/17 11:20:21;;;;;;;;;;;;;;;25.15;46.14;99974.91;1764320;80;20412;-52
2021/07/17 11:22:49;;;;;;;;;;;;;;;25.15;46.11;99974.91;1764245;80;20223;-52
2021/07/17 11:25:17;;;;;;;;;;;;;;;25.14;46.06;99962.16;1786252;78;22091;-53
2021/07/17 11:27:43;;;;;;;;;;;;;;;25.15;46.02;99974.11;1763911;79;20341;-52
2021/07/17 11:30:14;;;;;;;;;;;;;;;25.16;45.99;99967.38;1789998;78;20274;-53
2021/07/17 11:32:47;;;;;;;;;;;;;;;25.16;45.94;99961.22;1761978;80;20504;-52
2021/07/17 11:35:17;;;;;;;;;;;;;;;25.17;45.93;99962.81;1732761;80;20173;-50
2021/07/17 11:37:42;;;;;;;;;;;;;;;25.18;45.90;99959.44;1784026;78;21965;-53
2021/07/17 11:40:09;;;;;;;;;;;;;;;25.19;45.85;99951.31;1761807;80;21675;-53
2021/07/17 11:42:36;;;;;;;;;;;;;;;25.18;45.83;99960.25;1745859;80;20181;-53
2021/07/17 11:45:03;;;;;;;;;;;;;;;25.20;45.77;99955.72;1776269;79;20431;-51
2021/07/17 11:47:30;;;;;;;;;;;;;;;25.21;45.74;99945.59;1777440;79;20338;-52
2021/07/17 11:49:56;;;;;;;;;;;;;;;25.22;45.70;99950.56;1776453;79;21056;-52
2021/07/17 11:52:31;;;;;;;;;;;;;;;25.23;45.67;99957.17;1790092;78;20127;-53
2021/07/17 11:54:58;;;;;;;;;;;;;;;25.25;45.63;99954.03;1758538;80;20720;-54
2021/07/17 11:57:32;;;;;;;;;;;;;;;25.26;45.61;99947.27;1787015;79;20760;-54
2021/07/17 12:00:01;;;;;;;;;;;;;;;25.26;45.54;99938.91;1763330;80;20198;-54
2021/07/17 12:02:29;;;;;;;;;;;;;;;25.26;45.49;99946.68;1763648;80;21221;-53
2021/07/17 12:04:57;;;;;;;;;;;;;;;25.25;45.44;99940.88;1767185;80;20170;-54
2021/07/17 12:07:28;;;;;;;;;;;;;;;25.27;45.42;99947.48;1767338;80;20137;-53
2021/07/17 12:09:58;;;;;;;;;;;;;;;25.26;45.40;99941.11;1766358;80;20411;-54
2021/07/17 12:12:42;;;;;;;;;;;;;;;25.27;45.34;99935.77;1764467;80;20186;-55
2021/07/17 12:15:14;;;;;;;;;;;;;;;25.28;45.31;99933.20;1766921;79;21085;-54
2021/07/17 12:17:43;;;;;;;;;;;;;;;25.30;45.25;99943.38;1768542;79;20132;-54
2021/07/17 12:20:26;;;;;;;;;;;;;;;25.30;45.21;99936.99;1778420;78;20195;-55
2021/07/17 12:23:04;;;;;;;;;;;;;;;25.30;45.18;99940.59;1744306;80;20148;-53
2021/07/17 12:25:39;;;;;;;;;;;;;;;25.30;45.12;99947.55;1790039;78;20954;-53
2021/07/17 12:28:08;;;;;;;;;;;;;;;25.31;45.06;99940.00;1763272;80;21151;-53
2021/07/17 12:30:36;;;;;;;;;;;;;;;25.30;45.04;99939.20;1765869;80;20152;-55
2021/07/17 12:33:17;;;;;;;;;;;;;;;25.31;45.00;99933.05;1763236;80;20120;-53
2021/07/17 12:35:43;;;;;;;;;;;;;;;25.31;44.98;99923.30;1765586;80;20138;-54
2021/07/17 12:38:21;;;;;;;;;;;;;;;25.32;44.93;99938.25;1777789;79;20184;-53